Time;durP1;ratioP1;P1;durP2;ratioP2;P2;SDS_P1;SDS_P2;PMS_P1;PMS_P2;Temp;Humidity;BMP_temperature;BMP_pressure;BME280_temperature;BME280_humidity;BME280_pressure;Samples;Min_cycle;Max_cycle;Signal;HPM_P1;HPM_P2
2022/06/06 00:00:50;;;;;;;8.05;6.05;;;21.20;94.50;;;;;;5063236;28;45252;-68
2022/06/06 00:03:19;;;;;;;9.98;6.40;;;21.20;94.50;;;;;;5066224;28;45210;-68
2022/06/06 00:05:48;;;;;;;8.60;5.63;;;21.20;94.50;;;;;;5061273;28;45228;-68
2022/06/06 00:08:16;;;;;;;7.00;5.28;;;21.20;94.50;;;;;;5065485;28;46473;-68
2022/06/06 00:10:45;;;;;;;8.98;5.55;;;21.20;94.50;;;;;;5062712;28;45555;-68
2022/06/06 00:13:14;;;;;;;7.90;5.90;;;21.20;94.50;;;;;;5061467;28;45308;-68
2022/06/06 00:15:42;;;;;;;8.23;5.80;;;21.20;94.50;;;;;;5067840;28;45398;-68
2022/06/06 00:18:09;;;;;;;7.63;5.18;;;21.20;94.50;;;;;;5072474;28;46344;-67
2022/06/06 00:20:36;;;;;;;6.53;5.28;;;21.20;94.50;;;;;;5058969;28;45145;-68
2022/06/06 00:23:02;;;;;;;7.68;5.15;;;21.20;94.50;;;;;;5071755;28;45339;-68
2022/06/06 00:25:29;;;;;;;7.13;5.00;;;21.20;94.50;;;;;;5068784;28;45253;-68
2022/06/06 00:27:56;;;;;;;8.05;5.80;;;21.20;94.50;;;;;;5068178;28;45403;-67
2022/06/06 00:30:23;;;;;;;6.45;5.20;;;21.30;94.40;;;;;;5064918;28;45689;-68
2022/06/06 00:35:36;;;;;;;8.45;5.70;;;21.20;94.30;;;;;;5055787;28;45210;-68
2022/06/06 00:38:02;;;;;;;9.00;6.00;;;21.20;94.20;;;;;;5077791;28;47691;-67
2022/06/06 00:40:31;;;;;;;6.22;4.75;;;21.30;94.20;;;;;;5066646;28;45308;-67
2022/06/06 00:42:58;;;;;;;7.25;5.07;;;21.30;94.30;;;;;;5070307;28;46344;-68
2022/06/06 00:45:29;;;;;;;6.80;4.93;;;21.20;94.20;;;;;;5070674;28;45281;-68
2022/06/06 00:48:06;;;;;;;7.47;5.13;;;21.20;94.20;;;;;;5062834;28;47934;-68
2022/06/06 00:50:38;;;;;;;7.15;4.85;;;21.20;94.30;;;;;;5068374;28;45310;-68
2022/06/06 00:53:07;;;;;;;6.25;4.78;;;21.20;94.10;;;;;;5066651;28;45311;-68
2022/06/06 00:55:39;;;;;;;6.75;4.93;;;21.20;94.10;;;;;;5069497;28;45383;-68
2022/06/06 00:58:11;;;;;;;5.80;4.70;;;21.20;94.10;;;;;;5055948;28;47969;-68
2022/06/06 01:00:39;;;;;;;6.43;4.88;;;21.20;94.20;;;;;;5060733;28;45219;-68
2022/06/06 01:03:10;;;;;;;7.45;5.22;;;21.20;94.10;;;;;;5065747;28;45445;-68
2022/06/06 01:05:37;;;;;;;7.13;5.18;;;21.20;94.10;;;;;;5068418;28;45484;-68
2022/06/06 01:08:07;;;;;;;8.18;5.25;;;21.20;94.40;;;;;;5064213;28;45288;-68
2022/06/06 01:10:34;;;;;;;6.47;4.75;;;21.20;94.20;;;;;;5058437;28;45984;-68
2022/06/06 01:13:02;;;;;;;7.18;4.82;;;21.20;94.20;;;;;;5066164;28;45166;-68
2022/06/06 01:15:35;;;;;;;5.82;4.40;;;21.20;94.10;;;;;;5055993;28;45291;-68
2022/06/06 01:18:09;;;;;;;6.97;4.70;;;21.20;94.10;;;;;;5068126;28;47410;-68
2022/06/06 01:21:00;;;;;;;6.50;5.00;;;21.20;94.10;;;;;;5046797;28;45259;-68
2022/06/06 01:23:46;;;;;;;6.00;4.55;;;21.20;94.10;;;;;;5061247;28;45383;-68
2022/06/06 01:26:35;;;;;;;5.55;4.28;;;21.20;94.00;;;;;;5062963;28;45443;-68
2022/06/06 01:29:09;;;;;;;6.18;4.68;;;21.20;93.90;;;;;;5067474;28;45191;-68
2022/06/06 01:31:40;;;;;;;6.93;5.28;;;21.20;94.00;;;;;;5057042;28;45330;-68
2022/06/06 01:34:10;;;;;;;5.65;4.32;;;21.20;93.90;;;;;;5067744;28;45359;-68
2022/06/06 01:36:39;;;;;;;6.80;4.55;;;21.20;93.90;;;;;;5059930;28;45342;-68
2022/06/06 01:39:12;;;;;;;7.20;4.18;;;21.20;93.90;;;;;;5067205;28;47980;-68
2022/06/06 01:41:48;;;;;;;5.13;4.00;;;21.30;93.90;;;;;;5071748;28;45251;-68
2022/06/06 01:44:23;;;;;;;5.70;4.18;;;21.20;93.80;;;;;;5065598;28;45796;-68
2022/06/06 01:46:51;;;;;;;5.63;3.97;;;21.20;93.70;;;;;;5068563;28;45352;-68
2022/06/06 01:49:19;;;;;;;6.28;4.10;;;21.20;94.10;;;;;;5066573;28;48334;-68
2022/06/06 01:51:59;;;;;;;5.60;4.13;;;21.20;93.70;;;;;;5071804;28;45284;-68
2022/06/06 01:54:26;;;;;;;6.68;4.22;;;21.20;94.10;;;;;;5056678;28;45311;-68
2022/06/06 01:56:53;;;;;;;5.40;4.18;;;21.20;93.70;;;;;;5071202;28;45517;-68
2022/06/06 01:59:21;;;;;;;6.00;4.13;;;21.20;93.80;;;;;;5067053;28;47367;-68
2022/06/06 02:01:48;;;;;;;4.97;3.97;;;21.20;93.70;;;;;;5058794;28;46090;-68
2022/06/06 02:04:15;;;;;;;4.53;3.58;;;21.20;93.70;;;;;;5075807;28;45253;-68
2022/06/06 02:06:42;;;;;;;4.72;3.53;;;21.20;93.70;;;;;;5065720;28;45370;-68
2022/06/06 02:09:09;;;;;;;5.45;3.80;;;21.20;93.70;;;;;;5062528;28;47387;-68
2022/06/06 02:11:36;;;;;;;4.50;3.65;;;21.20;93.70;;;;;;5071227;28;45588;-68
2022/06/06 02:14:04;;;;;;;5.63;3.58;;;21.20;93.70;;;;;;5065966;28;45293;-68
2022/06/06 02:16:32;;;;;;;5.43;3.58;;;21.20;93.60;;;;;;5062573;28;45388;-68
2022/06/06 02:18:59;;;;;;;4.20;3.42;;;21.30;93.70;;;;;;5059260;28;47431;-68
2022/06/06 02:21:26;;;;;;;4.75;3.70;;;21.20;93.60;;;;;;5063379;28;45162;-68
2022/06/06 02:23:52;;;;;;;4.82;3.50;;;21.30;93.60;;;;;;5060413;28;45177;-68
2022/06/06 02:26:19;;;;;;;4.70;3.17;;;21.20;93.60;;;;;;5059828;28;45496;-68
2022/06/06 02:28:46;;;;;;;4.13;3.35;;;21.30;93.60;;;;;;5054931;28;47383;-68
2022/06/06 02:31:13;;;;;;;3.55;2.88;;;21.30;93.60;;;;;;5063847;28;45169;-67
2022/06/06 02:33:41;;;;;;;5.30;3.30;;;21.30;93.50;;;;;;5064405;28;45320;-68
2022/06/06 02:36:08;;;;;;;3.67;2.78;;;21.20;93.40;;;;;;5061551;28;47101;-68
2022/06/06 02:38:35;;;;;;;4.13;3.05;;;21.20;93.40;;;;;;5065530;28;47108;-68
2022/06/06 02:41:08;;;;;;;4.70;3.10;;;21.20;93.50;;;;;;5063797;28;45221;-67
2022/06/06 02:43:36;;;;;;;5.10;3.28;;;21.20;93.40;;;;;;5066216;28;45254;-68
2022/06/06 02:46:03;;;;;;;3.92;3.25;;;21.20;93.50;;;;;;5068340;28;46274;-68
2022/06/06 02:48:31;;;;;;;3.80;2.90;;;21.20;93.40;;;;;;5068394;28;47382;-68
2022/06/06 02:50:59;;;;;;;4.20;2.85;;;21.20;93.40;;;;;;5074424;28;45271;-68
2022/06/06 02:53:26;;;;;;;4.03;3.13;;;21.20;93.20;;;;;;5061502;28;45352;-68
2022/06/06 02:55:54;;;;;;;3.35;2.53;;;21.20;93.20;;;;;;5072546;28;45214;-68
2022/06/06 02:58:22;;;;;;;3.30;2.97;;;21.20;93.20;;;;;;5067854;28;46204;-68
2022/06/06 03:00:49;;;;;;;4.32;2.95;;;21.20;93.20;;;;;;5070045;28;45262;-68
2022/06/06 03:03:16;;;;;;;3.70;2.67;;;21.20;93.40;;;;;;5068177;28;45593;-68
2022/06/06 03:05:55;;;;;;;3.63;2.67;;;21.20;93.30;;;;;;5061451;28;45503;-68
2022/06/06 03:08:52;;;;;;;3.05;2.60;;;21.20;93.40;;;;;;5069563;28;45231;-68
2022/06/06 03:11:37;;;;;;;3.28;2.38;;;21.20;93.30;;;;;;5067600;28;45247;-68
2022/06/06 03:14:21;;;;;;;3.17;2.45;;;21.20;93.20;;;;;;5073001;28;45160;-67
2022/06/06 03:23:07;;;;;;;2.90;2.42;;;21.20;93.00;;;;;;5063778;28;45412;-68
2022/06/06 03:25:42;;;;;;;2.92;2.25;;;21.20;92.90;;;;;;5064014;28;45251;-68
2022/06/06 03:28:17;;;;;;;3.30;2.70;;;21.20;93.00;;;;;;5063534;28;45332;-68
2022/06/06 03:30:53;;;;;;;2.92;2.38;;;21.20;93.00;;;;;;5064616;28;46219;-68
2022/06/06 03:33:27;;;;;;;3.80;2.70;;;21.30;93.00;;;;;;5066142;28;45172;-67
2022/06/06 03:36:10;;;;;;;3.05;2.75;;;21.20;93.00;;;;;;5064099;28;45199;-68
2022/06/06 03:38:45;;;;;;;3.10;2.42;;;21.30;93.00;;;;;;5068017;28;45182;-67
2022/06/06 03:41:21;;;;;;;3.67;2.72;;;21.20;92.90;;;;;;5064449;28;46464;-68
2022/06/06 03:44:00;;;;;;;2.90;2.20;;;21.20;93.30;;;;;;5065151;28;45937;-68
2022/06/06 03:46:39;;;;;;;2.88;2.40;;;21.20;92.90;;;;;;5060326;28;45226;-67
2022/06/06 03:49:17;;;;;;;3.33;2.22;;;21.20;92.90;;;;;;5073625;28;45184;-67
2022/06/06 03:51:59;;;;;;;3.17;2.30;;;21.20;92.90;;;;;;5048134;28;45996;-67
2022/06/06 03:54:36;;;;;;;2.72;2.20;;;21.20;92.90;;;;;;5069110;28;45244;-68
2022/06/06 03:57:13;;;;;;;2.20;2.00;;;21.20;92.90;;;;;;5057108;28;45200;-67
2022/06/06 03:59:42;;;;;;;2.55;2.22;;;21.20;92.90;;;;;;5059902;28;45660;-67
2022/06/06 04:02:11;;;;;;;3.10;2.47;;;21.20;93.00;;;;;;5057364;28;47394;-67
2022/06/06 04:04:39;;;;;;;2.67;2.40;;;21.20;93.00;;;;;;5063902;28;45271;-67
2022/06/06 04:07:06;;;;;;;2.38;2.15;;;21.20;92.90;;;;;;5066025;28;45460;-67
2022/06/06 04:09:34;;;;;;;3.08;2.15;;;21.20;93.30;;;;;;5060380;28;45438;-67
2022/06/06 04:12:19;;;;;;;2.40;2.10;;;21.20;92.90;;;;;;5066885;28;47086;-67
2022/06/06 04:14:58;;;;;;;2.40;2.03;;;21.30;92.80;;;;;;5059579;28;45134;-67
2022/06/06 04:17:36;;;;;;;2.42;1.98;;;21.20;92.80;;;;;;5272341;22;45201;-67
2022/06/06 04:20:18;;;;;;;2.58;1.90;;;21.20;92.70;;;;;;5069412;28;45602;-68
2022/06/06 04:22:59;;;;;;;3.33;2.20;;;21.20;92.70;;;;;;5052355;28;45242;-68
2022/06/06 04:25:43;;;;;;;2.42;2.22;;;21.30;92.70;;;;;;5061174;28;45240;-68
2022/06/06 04:28:20;;;;;;;2.63;2.22;;;21.30;92.70;;;;;;5064155;28;45327;-68
2022/06/06 04:30:54;;;;;;;2.25;1.80;;;21.30;92.60;;;;;;5061275;28;45251;-68
2022/06/06 04:33:25;;;;;;;2.53;2.15;;;21.20;92.70;;;;;;5061238;28;45239;-68
2022/06/06 04:36:04;;;;;;;2.60;2.40;;;21.20;92.80;;;;;;5061620;28;45424;-68
2022/06/06 04:38:38;;;;;;;2.80;2.28;;;21.20;92.80;;;;;;5067239;28;45417;-68
2022/06/06 04:41:15;;;;;;;3.25;2.45;;;21.20;92.70;;;;;;5061102;28;45328;-68
2022/06/06 04:43:50;;;;;;;2.97;2.40;;;21.20;92.70;;;;;;5058122;28;46162;-68
2022/06/06 04:46:22;;;;;;;2.50;2.10;;;21.20;92.60;;;;;;5068275;28;45120;-68
2022/06/06 04:48:51;;;;;;;3.10;2.38;;;21.20;92.60;;;;;;5056214;28;45529;-68
2022/06/06 04:51:21;;;;;;;3.13;2.60;;;21.20;92.60;;;;;;5067112;28;45374;-68
2022/06/06 04:53:52;;;;;;;3.20;2.25;;;21.20;92.50;;;;;;5065615;28;46271;-68
2022/06/06 04:56:20;;;;;;;2.83;2.35;;;21.20;92.60;;;;;;5066615;28;45211;-68
2022/06/06 04:58:51;;;;;;;4.32;2.47;;;21.20;92.60;;;;;;5061745;28;45174;-68
2022/06/06 05:01:18;;;;;;;3.55;2.45;;;21.20;92.50;;;;;;5066936;28;45154;-68
2022/06/06 05:03:45;;;;;;;2.63;2.33;;;21.20;92.50;;;;;;5065748;28;46620;-68
2022/06/06 05:06:52;;;;;;;2.88;1.90;;;21.20;92.30;;;;;;5058656;28;45391;-68
2022/06/06 05:09:42;;;;;;;3.10;2.15;;;21.20;92.30;;;;;;5016767;28;45294;-68
2022/06/06 05:12:22;;;;;;;2.88;2.05;;;21.20;92.10;;;;;;5062177;28;45391;-67
2022/06/06 05:15:07;;;;;;;3.10;2.10;;;21.20;92.10;;;;;;5062731;28;46319;-68
2022/06/06 05:17:50;;;;;;;2.25;1.95;;;21.20;92.10;;;;;;5065364;28;45620;-68
2022/06/06 05:20:32;;;;;;;3.22;2.05;;;21.20;92.00;;;;;;5050260;28;45288;-68
2022/06/06 05:23:24;;;;;;;2.92;2.15;;;21.20;91.90;;;;;;5063623;28;45276;-68
2022/06/06 05:26:11;;;;;;;2.92;2.35;;;21.20;91.90;;;;;;5061151;28;45186;-68
2022/06/06 05:29:04;;;;;;;2.28;1.75;;;21.20;92.00;;;;;;5054907;28;45217;-68
2022/06/06 05:31:51;;;;;;;2.47;2.10;;;21.20;92.10;;;;;;5055668;28;45459;-68
2022/06/06 05:34:24;;;;;;;2.67;2.10;;;21.20;92.20;;;;;;5066857;28;45161;-68
2022/06/06 05:37:04;;;;;;;2.40;1.98;;;21.20;92.10;;;;;;5062957;28;45972;-68
2022/06/06 05:39:43;;;;;;;2.65;2.20;;;21.20;92.10;;;;;;5067489;28;45435;-68
2022/06/06 05:42:25;;;;;;;2.55;1.80;;;21.20;92.20;;;;;;5065403;28;45264;-67
2022/06/06 05:45:05;;;;;;;2.10;1.77;;;21.20;92.30;;;;;;5054271;28;45316;-68
2022/06/06 05:47:41;;;;;;;2.05;1.75;;;21.20;92.10;;;;;;5059587;28;46212;-68
2022/06/06 05:50:20;;;;;;;2.97;1.95;;;21.20;92.20;;;;;;5065660;28;46171;-68
2022/06/06 05:53:01;;;;;;;3.08;1.80;;;21.10;92.20;;;;;;5059789;28;45268;-68
2022/06/06 05:55:46;;;;;;;1.95;1.70;;;21.20;92.20;;;;;;5054842;28;45410;-68
2022/06/06 05:58:43;;;;;;;2.53;2.03;;;21.20;92.20;;;;;;5055032;28;46648;-68
2022/06/06 06:01:28;;;;;;;1.83;1.50;;;21.20;92.00;;;;;;5065143;28;45172;-68
2022/06/06 06:04:13;;;;;;;2.40;2.00;;;21.20;91.90;;;;;;5056944;28;45257;-68
2022/06/06 06:06:49;;;;;;;2.72;2.03;;;21.10;91.70;;;;;;5049862;28;45269;-68
2022/06/06 06:09:25;;;;;;;2.15;1.60;;;21.20;91.60;;;;;;5063791;28;45428;-68
2022/06/06 06:12:04;;;;;;;2.67;1.77;;;21.20;91.60;;;;;;5065576;28;45414;-68
2022/06/06 06:14:41;;;;;;;1.95;1.70;;;21.20;91.40;;;;;;5058110;28;45803;-68
2022/06/06 06:17:09;;;;;;;1.92;1.73;;;21.20;91.40;;;;;;5064883;28;45206;-68
2022/06/06 06:19:44;;;;;;;2.25;1.92;;;21.20;91.50;;;;;;5062835;28;45340;-68
2022/06/06 06:22:11;;;;;;;2.10;1.70;;;21.20;91.40;;;;;;5065394;28;45869;-68
2022/06/06 06:24:41;;;;;;;2.03;1.50;;;21.20;91.50;;;;;;5061948;28;45330;-68
2022/06/06 06:27:08;;;;;;;2.95;2.00;;;21.20;91.60;;;;;;5061461;28;45319;-68
2022/06/06 06:29:35;;;;;;;1.75;1.60;;;21.20;91.60;;;;;;5069617;28;46206;-68
2022/06/06 06:32:26;;;;;;;2.58;1.80;;;21.20;91.60;;;;;;5061688;28;45366;-68
2022/06/06 06:35:09;;;;;;;1.83;1.65;;;21.10;91.50;;;;;;5067176;28;45261;-68
2022/06/06 06:37:50;;;;;;;2.33;1.70;;;21.20;91.40;;;;;;5063714;28;45141;-68
2022/06/06 06:40:30;;;;;;;2.13;1.52;;;21.10;91.30;;;;;;5065006;28;46629;-68
2022/06/06 06:43:07;;;;;;;1.83;1.50;;;21.20;91.40;;;;;;5064785;28;45795;-68
2022/06/06 06:45:38;;;;;;;3.05;1.60;;;21.20;91.30;;;;;;5068969;28;45213;-68
2022/06/06 06:48:11;;;;;;;1.73;1.38;;;21.20;91.10;;;;;;5068526;28;45421;-68
2022/06/06 06:50:48;;;;;;;1.70;1.30;;;21.10;91.10;;;;;;5061256;28;47882;-67
2022/06/06 06:53:27;;;;;;;1.83;1.40;;;21.10;91.30;;;;;;5062025;28;45240;-68
2022/06/06 06:56:02;;;;;;;4.53;1.40;;;21.10;91.20;;;;;;5069253;28;45232;-67
2022/06/06 06:58:50;;;;;;;1.80;1.30;;;21.20;91.00;;;;;;5069161;28;45422;-67
2022/06/06 07:01:25;;;;;;;1.30;1.20;;;21.20;91.00;;;;;;5060154;28;45470;-68
2022/06/06 07:10:03;;;;;;;1.48;1.38;;;21.10;91.10;;;;;;5057656;28;45390;-68
2022/06/06 07:12:44;;;;;;;1.50;1.30;;;21.20;91.40;;;;;;5055722;28;47482;-68
2022/06/06 07:15:22;;;;;;;1.80;1.50;;;21.10;90.90;;;;;;5057004;28;45451;-67
2022/06/06 07:17:53;;;;;;;1.20;1.10;;;21.10;90.80;;;;;;5059221;28;46647;-67
2022/06/06 07:20:21;;;;;;;1.38;1.25;;;21.10;90.50;;;;;;5066157;28;45478;-67
2022/06/06 07:23:02;;;;;;;1.00;0.90;;;21.10;90.40;;;;;;5064000;28;45412;-67
2022/06/06 07:25:32;;;;;;;1.30;1.08;;;21.10;90.30;;;;;;5066549;28;45425;-67
2022/06/06 07:27:59;;;;;;;2.08;1.17;;;21.10;90.00;;;;;;5069424;28;45215;-68
2022/06/06 07:30:31;;;;;;;1.67;1.10;;;21.10;90.20;;;;;;5059567;28;45157;-68
2022/06/06 07:33:22;;;;;;;1.95;1.20;;;21.00;90.10;;;;;;5062032;28;46966;-68
2022/06/06 07:36:04;;;;;;;1.10;1.00;;;21.10;90.30;;;;;;5064970;28;45532;-68
2022/06/06 07:38:45;;;;;;;1.35;0.85;;;21.10;90.40;;;;;;5064664;28;45451;-68
2022/06/06 07:41:26;;;;;;;1.38;0.93;;;21.10;90.40;;;;;;5065327;28;45368;-68
2022/06/06 07:44:04;;;;;;;1.40;1.08;;;21.10;90.40;;;;;;5061650;28;46064;-68
2022/06/06 07:46:42;;;;;;;0.88;0.88;;;21.10;90.40;;;;;;5053474;28;45319;-68
2022/06/06 07:49:18;;;;;;;1.25;0.93;;;21.10;90.40;;;;;;5063167;28;45383;-70
2022/06/06 07:51:51;;;;;;;7.50;1.60;;;21.10;90.40;;;;;;5063195;28;45277;-67
2022/06/06 07:54:30;;;;;;;12.70;1.35;;;21.10;89.40;;;;;;5061332;28;46232;-67
2022/06/06 07:57:07;;;;;;;4.43;1.40;;;21.10;90.10;;;;;;5058484;28;45339;-67
2022/06/06 07:59:50;;;;;;;5.57;1.45;;;21.10;89.60;;;;;;5066520;28;45232;-67
2022/06/06 08:02:50;;;;;;;6.95;1.88;;;21.10;89.50;;;;;;5060672;28;45756;-67
2022/06/06 08:05:32;;;;;;;2.15;1.15;;;21.10;89.20;;;;;;5063239;28;48607;-67
2022/06/06 08:08:09;;;;;;;2.28;0.90;;;21.10;89.20;;;;;;5055900;28;45401;-67
2022/06/06 08:10:41;;;;;;;1.92;1.30;;;21.10;88.90;;;;;;5061666;28;45189;-68
2022/06/06 08:13:25;;;;;;;0.95;0.85;;;21.10;88.70;;;;;;5064418;28;45489;-67
2022/06/06 08:16:14;;;;;;;1.92;1.10;;;21.20;88.60;;;;;;5066609;28;46538;-68
2022/06/06 08:19:03;;;;;;;2.30;1.00;;;21.20;88.40;;;;;;5058952;28;46859;-68
2022/06/06 08:21:35;;;;;;;3.13;0.80;;;21.20;88.50;;;;;;5065365;28;45217;-67
2022/06/06 08:24:05;;;;;;;1.17;0.98;;;21.10;88.50;;;;;;5054035;28;45415;-67
2022/06/06 08:26:37;;;;;;;1.05;0.85;;;21.10;88.40;;;;;;5053585;28;47146;-68
2022/06/06 08:29:07;;;;;;;1.63;0.90;;;21.10;87.90;;;;;;5062711;28;45243;-67
2022/06/06 08:31:34;;;;;;;1.05;0.90;;;21.10;87.80;;;;;;5062695;28;45492;-67
2022/06/06 08:34:00;;;;;;;3.30;1.08;;;21.10;87.60;;;;;;5063342;28;46215;-67
2022/06/06 08:36:54;;;;;;;0.85;0.70;;;21.10;87.60;;;;;;5061740;28;48033;-68
2022/06/06 08:39:34;;;;;;;2.28;0.63;;;21.10;86.80;;;;;;5061701;28;45754;-67
2022/06/06 08:42:29;;;;;;;1.67;0.80;;;21.20;87.00;;;;;;5052860;28;45278;-68
2022/06/06 08:45:34;;;;;;;1.17;0.93;;;21.10;86.60;;;;;;5050019;28;45508;-68
2022/06/06 08:48:15;;;;;;;1.83;0.80;;;21.20;85.70;;;;;;5059977;28;48496;-68
2022/06/06 08:51:00;;;;;;;0.63;0.52;;;21.30;85.70;;;;;;5059112;28;45477;-68
2022/06/06 08:53:59;;;;;;;0.85;0.65;;;21.20;86.40;;;;;;5054766;28;45537;-68
2022/06/06 08:56:46;;;;;;;0.70;0.70;;;21.20;84.90;;;;;;5053477;28;45201;-68
2022/06/06 08:59:57;;;;;;;0.82;0.70;;;21.20;84.90;;;;;;5067522;28;47443;-68
2022/06/06 09:03:10;;;;;;;0.80;0.60;;;21.20;84.70;;;;;;5064199;28;45209;-68
2022/06/06 09:06:16;;;;;;;1.48;1.00;;;21.30;84.30;;;;;;5046609;28;45568;-68
2022/06/06 09:09:25;;;;;;;0.60;0.57;;;21.20;83.60;;;;;;5039960;28;45502;-67
2022/06/06 09:12:29;;;;;;;1.00;0.60;;;21.30;83.40;;;;;;5050815;28;45300;-68
2022/06/06 09:15:32;;;;;;;0.68;0.68;;;21.30;83.10;;;;;;5060726;28;45329;-67
2022/06/06 09:18:22;;;;;;;0.60;0.50;;;21.30;82.70;;;;;;5057640;28;45248;-67
2022/06/06 09:21:27;;;;;;;0.80;0.70;;;21.30;82.40;;;;;;5061980;28;45572;-68
2022/06/06 09:24:41;;;;;;;0.57;0.52;;;21.30;81.90;;;;;;5051594;28;47804;-68
2022/06/06 09:27:40;;;;;;;0.60;0.60;;;21.30;81.70;;;;;;5050272;28;45232;-67
2022/06/06 09:30:19;;;;;;;1.00;0.70;;;21.30;81.70;;;;;;5053779;28;45455;-68
2022/06/06 09:33:28;;;;;;;1.10;0.63;;;21.30;82.10;;;;;;5052229;28;45184;-67
2022/06/06 09:36:19;;;;;;;0.50;0.50;;;21.30;82.10;;;;;;5048849;28;47453;-67
2022/06/06 09:39:07;;;;;;;0.60;0.60;;;21.30;82.20;;;;;;5059985;28;45346;-67
2022/06/06 09:41:40;;;;;;;0.60;0.50;;;21.30;82.20;;;;;;5062837;28;45379;-67
2022/06/06 09:44:36;;;;;;;0.50;0.50;;;21.30;82.10;;;;;;5066294;28;45318;-67
2022/06/06 09:47:42;;;;;;;0.50;0.50;;;21.30;82.00;;;;;;5060957;28;46675;-67
2022/06/06 09:50:33;;;;;;;0.60;0.60;;;21.30;81.90;;;;;;5049362;28;45329;-67
2022/06/06 09:53:40;;;;;;;0.50;0.50;;;21.30;81.70;;;;;;5066428;28;45251;-68
2022/06/06 09:59:52;;;;;;;0.50;0.40;;;21.30;81.40;;;;;;5065699;28;45299;-67
2022/06/06 10:03:06;;;;;;;0.70;0.60;;;21.30;80.20;;;;;;5062491;28;45148;-67
2022/06/06 10:06:18;;;;;;;1.38;0.52;;;21.40;80.90;;;;;;5063140;28;45283;-67
2022/06/06 10:09:19;;;;;;;0.57;0.57;;;21.40;80.40;;;;;;5055755;28;45450;-67
2022/06/06 10:12:11;;;;;;;1.52;0.70;;;21.40;80.20;;;;;;5056647;28;46343;-68
2022/06/06 10:14:59;;;;;;;0.57;0.52;;;21.40;80.20;;;;;;5060476;28;45323;-67
2022/06/06 10:17:38;;;;;;;0.65;0.50;;;21.40;80.70;;;;;;5060537;28;45378;-68
2022/06/06 10:20:21;;;;;;;0.40;0.40;;;21.40;80.90;;;;;;5067599;28;45270;-68
2022/06/06 10:23:23;;;;;;;0.50;0.50;;;21.40;80.50;;;;;;5057924;28;45361;-68
2022/06/06 10:26:29;;;;;;;0.80;0.50;;;21.40;80.70;;;;;;5024640;28;46233;-68
2022/06/06 10:30:10;;;;;;;3.80;0.73;;;21.40;80.20;;;;;;5054174;28;45895;-67
2022/06/06 10:32:37;;;;;;;0.68;0.55;;;21.40;80.90;;;;;;5049823;28;45363;-67
2022/06/06 10:35:18;;;;;;;1.40;0.60;;;21.40;81.30;;;;;;5050195;28;47147;-67
2022/06/06 10:38:11;;;;;;;1.23;0.57;;;21.40;81.10;;;;;;5043012;28;45331;-67
2022/06/06 10:40:49;;;;;;;0.70;0.60;;;21.40;81.20;;;;;;5047628;28;46053;-67
2022/06/06 10:43:47;;;;;;;1.13;0.65;;;21.40;80.80;;;;;;5051821;28;46375;-67
2022/06/06 10:46:23;;;;;;;0.40;0.40;;;21.40;80.40;;;;;;5049456;28;46368;-67
2022/06/06 10:49:08;;;;;;;0.75;0.45;;;21.40;80.50;;;;;;5057155;28;45671;-67
2022/06/06 10:52:13;;;;;;;1.38;0.80;;;21.40;80.40;;;;;;5061139;28;45181;-68
2022/06/06 10:55:25;;;;;;;27.92;2.95;;;21.40;85.60;;;;;;5060997;28;45442;-69
2022/06/06 10:58:35;;;;;;;15.15;1.85;;;21.50;87.10;;;;;;5001055;28;45409;-68
2022/06/06 11:01:36;;;;;;;14.77;1.67;;;21.50;86.30;;;;;;5056713;28;45261;-68
2022/06/06 11:04:33;;;;;;;11.57;1.40;;;21.60;85.80;;;;;;5056892;28;45249;-69
2022/06/06 11:07:48;;;;;;;6.97;1.10;;;21.80;85.40;;;;;;5058522;28;45389;-69
2022/06/06 11:10:48;;;;;;;4.65;1.30;;;22.00;85.00;;;;;;5059555;28;46608;-69
2022/06/06 11:13:35;;;;;;;9.10;2.10;;;22.10;84.90;;;;;;5060650;28;45293;-69
2022/06/06 11:16:41;;;;;;;7.88;1.30;;;22.20;85.00;;;;;;5063021;28;45233;-69
2022/06/06 11:19:49;;;;;;;11.75;1.65;;;22.40;84.60;;;;;;5051847;28;45356;-69
2022/06/06 11:22:29;;;;;;;4.03;1.00;;;22.50;83.90;;;;;;5059086;28;47962;-69
2022/06/06 11:25:07;;;;;;;3.28;1.20;;;22.60;84.80;;;;;;5062198;28;45308;-69
2022/06/06 11:28:06;;;;;;;4.97;1.13;;;22.70;85.00;;;;;;5063786;28;45263;-69
2022/06/06 11:31:02;;;;;;;5.22;0.90;;;22.80;85.40;;;;;;5022107;28;45483;-69
2022/06/06 11:34:14;;;;;;;5.03;1.60;;;22.80;84.00;;;;;;5046992;28;46025;-69
2022/06/06 11:37:19;;;;;;;4.28;1.23;;;22.90;85.30;;;;;;5057385;28;45208;-69
2022/06/06 11:40:22;;;;;;;2.85;0.77;;;23.00;84.70;;;;;;5052079;28;45623;-74
2022/06/06 11:43:12;;;;;;;2.10;0.57;;;21.00;79.20;;;;;;5075459;28;45257;-72
2022/06/06 11:46:30;;;;;;;1.65;0.60;;;18.80;91.10;;;;;;5066267;28;45793;-72
2022/06/06 11:49:32;;;;;;;1.27;0.60;;;18.40;85.70;;;;;;4978423;28;45527;-75
2022/06/06 11:52:24;;;;;;;1.75;0.93;;;19.30;88.30;;;;;;5065294;28;46240;-75
2022/06/06 11:55:20;;;;;;;2.00;0.93;;;19.80;80.30;;;;;;5065866;28;45328;-75
2022/06/06 11:58:27;;;;;;;4.63;0.80;;;19.50;90.30;;;;;;5067625;28;47234;-75
2022/06/06 12:01:10;;;;;;;3.67;0.90;;;20.00;88.40;;;;;;5050611;28;45462;-75
2022/06/06 12:04:02;;;;;;;2.10;0.88;;;20.40;78.60;;;;;;5062981;28;45367;-75
2022/06/06 12:07:06;;;;;;;1.05;0.60;;;20.80;76.70;;;;;;5055904;28;45577;-74
2022/06/06 12:09:47;;;;;;;8.00;1.52;;;20.10;81.00;;;;;;5055901;28;45397;-75
2022/06/06 12:12:51;;;;;;;3.28;0.90;;;20.80;87.00;;;;;;5063091;28;45412;-75
2022/06/06 12:15:43;;;;;;;5.88;0.75;;;20.90;86.50;;;;;;5066146;28;45615;-79
2022/06/06 12:18:34;;;;;;;2.00;0.60;;;20.90;67.70;;;;;;5063455;28;45399;-72
2022/06/06 12:21:39;;;;;;;1.25;0.70;;;20.10;80.20;;;;;;5064298;28;46026;-73
2022/06/06 12:24:27;;;;;;;2.95;0.80;;;19.90;67.80;;;;;;5055739;28;45531;-69
2022/06/06 12:27:10;;;;;;;5.53;0.80;;;20.20;73.40;;;;;;5061925;28;45510;-65
2022/06/06 12:30:04;;;;;;;5.10;0.90;;;20.30;68.50;;;;;;5062795;28;45501;-72
2022/06/06 12:32:44;;;;;;;7.00;0.77;;;20.50;70.50;;;;;;5065965;28;45987;-69
2022/06/06 12:35:19;;;;;;;3.80;0.65;;;20.90;72.10;;;;;;5064775;28;45102;-70
2022/06/06 12:37:56;;;;;;;5.03;0.82;;;20.10;66.90;;;;;;5055031;28;45356;-70
2022/06/06 12:40:35;;;;;;;3.20;0.70;;;19.80;67.60;;;;;;5062019;28;45459;-70
2022/06/06 12:43:11;;;;;;;8.32;0.82;;;19.90;69.60;;;;;;5060601;28;46217;-71
2022/06/06 12:45:48;;;;;;;16.05;1.73;;;20.50;71.00;;;;;;5052223;28;46005;-72
2022/06/06 12:48:47;;;;;;;1.52;0.90;;;21.10;76.10;;;;;;5058944;28;45257;-70
2022/06/06 12:51:19;;;;;;;7.78;0.82;;;20.90;67.10;;;;;;5056805;28;45324;-71
2022/06/06 12:54:15;;;;;;;2.38;0.75;;;21.20;78.50;;;;;;5061161;28;46675;-71
2022/06/06 12:56:58;;;;;;;3.15;0.85;;;20.70;64.50;;;;;;5058330;28;45240;-73
2022/06/06 12:59:39;;;;;;;2.95;0.68;;;20.70;64.10;;;;;;5061895;28;46138;-73
2022/06/06 13:02:19;;;;;;;5.13;0.60;;;20.30;67.10;;;;;;5058258;28;45273;-73
2022/06/06 13:05:12;;;;;;;4.03;0.70;;;20.20;64.30;;;;;;5066048;28;47944;-73
2022/06/06 13:07:59;;;;;;;2.42;0.50;;;20.30;64.00;;;;;;5055290;28;45305;-74
2022/06/06 13:10:35;;;;;;;2.28;0.57;;;20.60;68.40;;;;;;5051962;28;45653;-74
2022/06/06 13:13:34;;;;;;;5.40;0.70;;;20.50;63.20;;;;;;5053334;28;45657;-74
2022/06/06 13:16:08;;;;;;;5.55;1.02;;;20.50;67.80;;;;;;5032882;28;45322;-74
2022/06/06 13:19:00;;;;;;;8.13;0.80;;;20.90;70.10;;;;;;5062954;28;45280;-74
2022/06/06 13:21:39;;;;;;;2.83;0.80;;;21.00;67.30;;;;;;5050516;28;45773;-72
2022/06/06 13:24:27;;;;;;;3.63;0.60;;;21.10;64.10;;;;;;5059635;28;45352;-74
2022/06/06 13:26:55;;;;;;;5.65;0.90;;;21.10;62.90;;;;;;5057897;28;45316;-74
2022/06/06 13:29:29;;;;;;;6.28;0.93;;;21.10;64.40;;;;;;5055905;28;45602;-73
2022/06/06 13:32:14;;;;;;;11.02;1.05;;;21.20;68.90;;;;;;5057938;28;45300;-73
2022/06/06 13:34:55;;;;;;;7.15;0.80;;;21.30;61.40;;;;;;5067084;28;45360;-73
2022/06/06 13:37:36;;;;;;;3.42;0.73;;;21.00;58.80;;;;;;5056573;28;46060;-73
2022/06/06 13:40:29;;;;;;;4.55;0.93;;;21.00;63.60;;;;;;5055808;28;46229;-74
2022/06/06 13:43:28;;;;;;;1.38;0.70;;;20.90;61.20;;;;;;5055909;28;45294;-73
2022/06/06 13:46:11;;;;;;;6.10;0.98;;;20.80;64.30;;;;;;5059349;28;45280;-74
2022/06/06 13:48:59;;;;;;;2.92;0.55;;;21.00;60.70;;;;;;5063075;28;47933;-74
2022/06/06 13:51:42;;;;;;;3.85;0.63;;;21.30;58.10;;;;;;5051240;28;45313;-73
2022/06/06 13:54:25;;;;;;;2.92;0.60;;;21.00;60.70;;;;;;5055512;28;45271;-73
2022/06/06 13:57:07;;;;;;;0.75;0.50;;;21.20;58.90;;;;;;5057734;28;45520;-73
2022/06/06 13:59:49;;;;;;;0.75;0.57;;;21.50;60.70;;;;;;5059883;28;47408;-74
2022/06/06 14:02:29;;;;;;;3.60;0.60;;;21.70;60.00;;;;;;5054663;28;45603;-74
2022/06/06 14:05:17;;;;;;;3.08;0.63;;;21.70;62.90;;;;;;5056083;28;46426;-74
2022/06/06 14:08:03;;;;;;;3.63;0.60;;;21.50;60.50;;;;;;5049414;28;45282;-74
2022/06/06 14:10:40;;;;;;;3.33;0.80;;;21.70;64.00;;;;;;5062204;28;47951;-74
2022/06/06 14:13:17;;;;;;;1.23;0.50;;;22.00;59.10;;;;;;5057532;28;45303;-73
2022/06/06 14:15:47;;;;;;;1.83;0.68;;;22.30;61.50;;;;;;5057312;28;45188;-73